sensor_id;sensor_type;location;lat;lon;timestamp;pressure;altitude;pressure_sealevel;temperature;humidity
35553;BME280;21656;46.054;13.614;2022-08-01T06:23:44;100521.72;;;23.70;69.98
35553;BME280;21656;46.054;13.614;2022-08-01T06:26:10;100518.97;;;23.70;69.70
35553;BME280;21656;46.054;13.614;2022-08-01T06:28:36;100516.47;;;23.75;69.69
35553;BME280;21656;46.054;13.614;2022-08-01T06:31:02;100520.72;;;23.78;70.43
35553;BME280;21656;46.054;13.614;2022-08-01T06:33:27;100517.09;;;23.84;70.21
35553;BME280;21656;46.054;13.614;2022-08-01T06:35:53;100511.84;;;23.89;69.79
35553;BME280;21656;46.054;13.614;2022-08-01T06:38:19;100520.31;;;23.88;70.68
35553;BME280;21656;46.054;13.614;2022-08-01T06:40:44;100519.66;;;23.92;68.83
35553;BME280;21656;46.054;13.614;2022-08-01T06:43:09;100514.16;;;23.92;70.17
35553;BME280;21656;46.054;13.614;2022-08-01T06:45:37;100514.19;;;23.99;69.83
35553;BME280;21656;46.054;13.614;2022-08-01T06:48:03;100512.50;;;23.98;67.93
35553;BME280;21656;46.054;13.614;2022-08-01T06:50:28;100508.91;;;24.04;67.55
35553;BME280;21656;46.054;13.614;2022-08-01T06:52:54;100519.47;;;24.07;68.96
35553;BME280;21656;46.054;13.614;2022-08-01T06:55:19;100513.75;;;24.15;69.15
35553;BME280;21656;46.054;13.614;2022-08-01T06:57:50;100521.81;;;24.17;68.61
35553;BME280;21656;46.054;13.614;2022-08-01T07:00:17;100524.75;;;24.15;68.05
35553;BME280;21656;46.054;13.614;2022-08-01T07:02:48;100514.63;;;24.22;66.61
35553;BME280;21656;46.054;13.614;2022-08-01T07:05:14;100508.28;;;24.22;67.27
35553;BME280;21656;46.054;13.614;2022-08-01T07:07:39;100517.81;;;24.26;66.78
35553;BME280;21656;46.054;13.614;2022-08-01T07:10:05;100505.53;;;24.29;67.10
35553;BME280;21656;46.054;13.614;2022-08-01T07:12:31;100505.72;;;24.40;67.42
35553;BME280;21656;46.054;13.614;2022-08-01T07:14:58;100504.44;;;24.43;65.48
35553;BME280;21656;46.054;13.614;2022-08-01T07:17:23;100507.00;;;24.38;65.93
35553;BME280;21656;46.054;13.614;2022-08-01T07:19:49;100506.59;;;24.41;65.20
35553;BME280;21656;46.054;13.614;2022-08-01T07:22:14;100507.88;;;24.45;65.54
35553;BME280;21656;46.054;13.614;2022-08-01T07:24:40;100514.22;;;24.52;65.34
35553;BME280;21656;46.054;13.614;2022-08-01T07:27:06;100500.66;;;24.64;65.48
35553;BME280;21656;46.054;13.614;2022-08-01T07:29:32;100500.19;;;24.80;65.44
35553;BME280;21656;46.054;13.614;2022-08-01T07:31:59;100512.66;;;24.96;65.21
35553;BME280;21656;46.054;13.614;2022-08-01T07:34:24;100505.84;;;25.05;64.45
35553;BME280;21656;46.054;13.614;2022-08-01T07:36:50;100510.31;;;25.20;63.85
35553;BME280;21656;46.054;13.614;2022-08-01T07:39:16;100504.97;;;25.25;64.42
35553;BME280;21656;46.054;13.614;2022-08-01T07:41:42;100500.28;;;25.32;63.55
35553;BME280;21656;46.054;13.614;2022-08-01T07:44:07;100501.75;;;25.35;63.50
35553;BME280;21656;46.054;13.614;2022-08-01T07:46:32;100489.47;;;25.37;63.09
35553;BME280;21656;46.054;13.614;2022-08-01T07:48:58;100499.19;;;25.40;61.98
35553;BME280;21656;46.054;13.614;2022-08-01T07:51:23;100492.13;;;25.50;61.46
35553;BME280;21656;46.054;13.614;2022-08-01T07:53:48;100487.63;;;25.63;61.21
35553;BME280;21656;46.054;13.614;2022-08-01T07:56:14;100483.97;;;25.69;60.62
35553;BME280;21656;46.054;13.614;2022-08-01T07:58:40;100488.34;;;25.83;59.99
35553;BME280;21656;46.054;13.614;2022-08-01T08:01:06;100482.59;;;25.91;59.67
35553;BME280;21656;46.054;13.614;2022-08-01T08:03:31;100483.66;;;25.90;59.00
35553;BME280;21656;46.054;13.614;2022-08-01T08:05:56;100473.91;;;25.88;57.68
35553;BME280;21656;46.054;13.614;2022-08-01T08:08:22;100476.88;;;25.86;58.92
35553;BME280;21656;46.054;13.614;2022-08-01T08:10:48;100480.28;;;25.88;59.41
35553;BME280;21656;46.054;13.614;2022-08-01T08:13:13;100472.38;;;25.92;59.05
35553;BME280;21656;46.054;13.614;2022-08-01T08:15:38;100477.22;;;25.97;58.59
35553;BME280;21656;46.054;13.614;2022-08-01T08:18:04;100474.81;;;26.07;57.79
35553;BME280;21656;46.054;13.614;2022-08-01T08:20:30;100475.13;;;26.24;57.81
35553;BME280;21656;46.054;13.614;2022-08-01T08:22:56;100468.63;;;26.36;57.33
35553;BME280;21656;46.054;13.614;2022-08-01T08:25:24;100463.38;;;26.53;56.73
35553;BME280;21656;46.054;13.614;2022-08-01T08:27:50;100463.50;;;26.65;56.00
35553;BME280;21656;46.054;13.614;2022-08-01T08:30:15;100462.34;;;26.73;54.68
35553;BME280;21656;46.054;13.614;2022-08-01T08:32:41;100450.31;;;26.86;54.89
35553;BME280;21656;46.054;13.614;2022-08-01T08:35:07;100452.47;;;27.02;54.38
35553;BME280;21656;46.054;13.614;2022-08-01T08:37:34;100455.75;;;27.11;53.99
35553;BME280;21656;46.054;13.614;2022-08-01T08:39:59;100449.47;;;27.22;53.38
35553;BME280;21656;46.054;13.614;2022-08-01T08:42:25;100446.41;;;27.42;51.97
35553;BME280;21656;46.054;13.614;2022-08-01T08:44:50;100442.63;;;27.55;49.55
35553;BME280;21656;46.054;13.614;2022-08-01T08:47:17;100442.81;;;27.72;49.19
35553;BME280;21656;46.054;13.614;2022-08-01T08:49:43;100444.19;;;27.93;48.09
35553;BME280;21656;46.054;13.614;2022-08-01T08:52:10;100440.50;;;27.99;46.79
35553;BME280;21656;46.054;13.614;2022-08-01T08:54:38;100436.88;;;28.10;46.00
35553;BME280;21656;46.054;13.614;2022-08-01T08:57:04;100438.59;;;28.23;44.07
35553;BME280;21656;46.054;13.614;2022-08-01T08:59:29;100441.16;;;28.48;42.42
35553;BME280;21656;46.054;13.614;2022-08-01T09:01:55;100435.94;;;28.75;39.46
35553;BME280;21656;46.054;13.614;2022-08-01T09:04:21;100442.63;;;29.03;40.02
35553;BME280;21656;46.054;13.614;2022-08-01T09:06:50;100440.31;;;29.23;38.99
35553;BME280;21656;46.054;13.614;2022-08-01T09:09:15;100444.63;;;29.31;37.63
35553;BME280;21656;46.054;13.614;2022-08-01T09:11:41;100452.50;;;29.51;37.04
35553;BME280;21656;46.054;13.614;2022-08-01T09:14:25;100446.78;;;29.86;35.20
35553;BME280;21656;46.054;13.614;2022-08-01T09:17:06;100437.81;;;29.96;35.37
35553;BME280;21656;46.054;13.614;2022-08-01T09:19:41;100438.31;;;30.10;36.27
35553;BME280;21656;46.054;13.614;2022-08-01T09:22:15;100434.78;;;30.14;36.82
35553;BME280;21656;46.054;13.614;2022-08-01T09:24:57;100440.69;;;30.35;35.69
35553;BME280;21656;46.054;13.614;2022-08-01T09:27:23;100438.91;;;30.45;36.05
35553;BME280;21656;46.054;13.614;2022-08-01T09:29:51;100442.16;;;30.59;35.96
35553;BME280;21656;46.054;13.614;2022-08-01T09:32:17;100436.81;;;30.75;36.31
35553;BME280;21656;46.054;13.614;2022-08-01T09:34:43;100442.34;;;31.14;34.05
35553;BME280;21656;46.054;13.614;2022-08-01T09:37:08;100438.03;;;31.01;34.57
35553;BME280;21656;46.054;13.614;2022-08-01T09:39:38;100442.22;;;31.03;34.09
35553;BME280;21656;46.054;13.614;2022-08-01T09:42:25;100441.97;;;31.05;34.56
35553;BME280;21656;46.054;13.614;2022-08-01T09:44:52;100433.88;;;31.03;33.04
35553;BME280;21656;46.054;13.614;2022-08-01T09:47:19;100432.53;;;31.06;33.36
35553;BME280;21656;46.054;13.614;2022-08-01T09:49:53;100437.38;;;31.16;31.61
35553;BME280;21656;46.054;13.614;2022-08-01T09:52:22;100431.56;;;31.17;32.54
35553;BME280;21656;46.054;13.614;2022-08-01T09:55:01;100440.91;;;31.33;33.17
35553;BME280;21656;46.054;13.614;2022-08-01T09:57:28;100437.72;;;31.24;33.11
35553;BME280;21656;46.054;13.614;2022-08-01T09:59:58;100426.19;;;31.10;33.23
35553;BME280;21656;46.054;13.614;2022-08-01T10:04:55;100431.09;;;31.25;31.64
35553;BME280;21656;46.054;13.614;2022-08-01T10:07:21;100427.41;;;31.20;31.87
35553;BME280;21656;46.054;13.614;2022-08-01T10:09:47;100436.84;;;31.19;31.63
35553;BME280;21656;46.054;13.614;2022-08-01T10:12:17;100430.69;;;31.17;32.80
35553;BME280;21656;46.054;13.614;2022-08-01T10:14:45;100417.78;;;31.27;32.98
35553;BME280;21656;46.054;13.614;2022-08-01T10:17:14;100429.00;;;31.38;32.69
35553;BME280;21656;46.054;13.614;2022-08-01T10:19:42;100424.88;;;31.18;32.91
35553;BME280;21656;46.054;13.614;2022-08-01T10:22:11;100417.81;;;31.33;33.50
35553;BME280;21656;46.054;13.614;2022-08-01T10:24:39;100418.31;;;31.29;33.58
35553;BME280;21656;46.054;13.614;2022-08-01T10:27:09;100403.97;;;31.38;33.96
35553;BME280;21656;46.054;13.614;2022-08-01T10:29:39;100417.25;;;31.52;33.53
35553;BME280;21656;46.054;13.614;2022-08-01T10:32:05;100409.34;;;31.71;33.30
35553;BME280;21656;46.054;13.614;2022-08-01T10:34:33;100403.78;;;31.71;33.76
35553;BME280;21656;46.054;13.614;2022-08-01T10:36:58;100411.09;;;31.50;32.80
35553;BME280;21656;46.054;13.614;2022-08-01T10:39:25;100408.56;;;31.49;33.01
35553;BME280;21656;46.054;13.614;2022-08-01T10:41:54;100402.84;;;31.61;33.41
35553;BME280;21656;46.054;13.614;2022-08-01T10:44:20;100406.84;;;31.75;33.57
35553;BME280;21656;46.054;13.614;2022-08-01T10:46:48;100404.34;;;31.73;33.16
35553;BME280;21656;46.054;13.614;2022-08-01T10:49:17;100396.91;;;31.84;33.96
35553;BME280;21656;46.054;13.614;2022-08-01T10:51:45;100394.91;;;32.07;32.84
35553;BME280;21656;46.054;13.614;2022-08-01T10:54:12;100392.44;;;32.15;32.88
35553;BME280;21656;46.054;13.614;2022-08-01T10:56:49;100398.38;;;32.24;32.03
35553;BME280;21656;46.054;13.614;2022-08-01T10:59:21;100404.53;;;32.26;32.02
35553;BME280;21656;46.054;13.614;2022-08-01T11:02:00;100385.56;;;32.28;32.00
35553;BME280;21656;46.054;13.614;2022-08-01T11:04:54;100390.03;;;32.24;32.16
35553;BME280;21656;46.054;13.614;2022-08-01T11:07:23;100384.72;;;32.23;31.83
35553;BME280;21656;46.054;13.614;2022-08-01T11:10:04;100388.06;;;32.25;32.44
35553;BME280;21656;46.054;13.614;2022-08-01T11:12:38;100382.25;;;32.26;31.62
35553;BME280;21656;46.054;13.614;2022-08-01T11:17:40;100378.59;;;32.68;31.73
35553;BME280;21656;46.054;13.614;2022-08-01T11:20:25;100380.53;;;32.68;31.55
35553;BME280;21656;46.054;13.614;2022-08-01T11:30:48;100362.44;;;32.70;31.46
35553;BME280;21656;46.054;13.614;2022-08-01T11:33:16;100354.97;;;32.91;30.50
35553;BME280;21656;46.054;13.614;2022-08-01T11:38:45;100355.09;;;33.22;30.45
35553;BME280;21656;46.054;13.614;2022-08-01T11:41:16;100345.06;;;33.31;30.85
35553;BME280;21656;46.054;13.614;2022-08-01T11:47:00;100350.97;;;33.50;30.15
35553;BME280;21656;46.054;13.614;2022-08-01T11:49:33;100345.94;;;33.52;30.15
35553;BME280;21656;46.054;13.614;2022-08-01T11:52:02;100337.88;;;33.56;30.17
35553;BME280;21656;46.054;13.614;2022-08-01T11:54:30;100329.22;;;33.73;30.12
35553;BME280;21656;46.054;13.614;2022-08-01T11:56:59;100332.00;;;33.73;30.92
35553;BME280;21656;46.054;13.614;2022-08-01T11:59:25;100327.81;;;33.80;30.21
35553;BME280;21656;46.054;13.614;2022-08-01T12:01:51;100337.03;;;33.86;29.58
35553;BME280;21656;46.054;13.614;2022-08-01T12:04:17;100338.16;;;33.59;29.61
35553;BME280;21656;46.054;13.614;2022-08-01T12:06:43;100325.31;;;33.74;30.11
35553;BME280;21656;46.054;13.614;2022-08-01T12:09:21;100333.97;;;33.72;29.46
35553;BME280;21656;46.054;13.614;2022-08-01T12:11:48;100326.97;;;33.59;30.12
35553;BME280;21656;46.054;13.614;2022-08-01T12:14:20;100336.72;;;33.46;30.39
35553;BME280;21656;46.054;13.614;2022-08-01T12:16:53;100329.78;;;33.59;29.64
35553;BME280;21656;46.054;13.614;2022-08-01T12:19:20;100320.28;;;33.86;30.03
35553;BME280;21656;46.054;13.614;2022-08-01T12:22:04;100321.91;;;34.02;30.00
35553;BME280;21656;46.054;13.614;2022-08-01T12:24:29;100330.88;;;34.15;30.18
35553;BME280;21656;46.054;13.614;2022-08-01T12:26:55;100325.28;;;33.94;29.65
35553;BME280;21656;46.054;13.614;2022-08-01T12:29:41;100325.00;;;33.80;29.68
35553;BME280;21656;46.054;13.614;2022-08-01T12:34:53;100323.63;;;33.73;29.61
35553;BME280;21656;46.054;13.614;2022-08-01T12:37:19;100315.78;;;33.95;29.05
35553;BME280;21656;46.054;13.614;2022-08-01T12:39:45;100312.19;;;33.59;28.75
35553;BME280;21656;46.054;13.614;2022-08-01T12:42:11;100327.19;;;33.22;28.87
35553;BME280;21656;46.054;13.614;2022-08-01T12:44:38;100323.56;;;33.11;29.38
35553;BME280;21656;46.054;13.614;2022-08-01T12:47:06;100315.75;;;33.08;29.60
35553;BME280;21656;46.054;13.614;2022-08-01T12:49:35;100316.34;;;33.51;30.22
35553;BME280;21656;46.054;13.614;2022-08-01T12:52:03;100315.25;;;33.78;29.53
35553;BME280;21656;46.054;13.614;2022-08-01T12:54:28;100309.97;;;33.61;29.38
35553;BME280;21656;46.054;13.614;2022-08-01T12:56:54;100304.34;;;33.45;28.34
35553;BME280;21656;46.054;13.614;2022-08-01T12:59:29;100308.53;;;33.38;29.23
35553;BME280;21656;46.054;13.614;2022-08-01T13:01:55;100313.59;;;33.77;29.25
35553;BME280;21656;46.054;13.614;2022-08-01T13:04:21;100303.78;;;34.00;28.58
35553;BME280;21656;46.054;13.614;2022-08-01T13:06:47;100309.09;;;33.91;28.53
35553;BME280;21656;46.054;13.614;2022-08-01T13:09:13;100304.63;;;33.80;27.91
35553;BME280;21656;46.054;13.614;2022-08-01T13:11:41;100307.72;;;33.37;28.44
35553;BME280;21656;46.054;13.614;2022-08-01T13:14:08;100312.41;;;33.16;28.79
35553;BME280;21656;46.054;13.614;2022-08-01T13:16:45;100304.94;;;33.53;29.03
35553;BME280;21656;46.054;13.614;2022-08-01T13:19:11;100303.50;;;33.35;28.56
35553;BME280;21656;46.054;13.614;2022-08-01T13:21:36;100301.25;;;33.27;28.68
35553;BME280;21656;46.054;13.614;2022-08-01T13:24:09;100301.00;;;33.43;28.43
35553;BME280;21656;46.054;13.614;2022-08-01T13:26:51;100303.50;;;33.24;28.29
35553;BME280;21656;46.054;13.614;2022-08-01T13:29:21;100313.81;;;33.44;28.60
35553;BME280;21656;46.054;13.614;2022-08-01T13:31:48;100300.75;;;33.50;28.38
35553;BME280;21656;46.054;13.614;2022-08-01T13:34:14;100286.81;;;33.65;28.80
35553;BME280;21656;46.054;13.614;2022-08-01T13:36:40;100284.78;;;33.97;28.12
35553;BME280;21656;46.054;13.614;2022-08-01T13:39:05;100297.13;;;33.85;27.50
35553;BME280;21656;46.054;13.614;2022-08-01T13:41:50;100292.63;;;33.49;28.34
35553;BME280;21656;46.054;13.614;2022-08-01T13:44:16;100298.81;;;33.66;27.65
35553;BME280;21656;46.054;13.614;2022-08-01T13:46:42;100297.38;;;33.89;28.51
35553;BME280;21656;46.054;13.614;2022-08-01T13:49:09;100302.97;;;33.89;27.70
35553;BME280;21656;46.054;13.614;2022-08-01T13:51:35;100299.06;;;33.70;28.07
35553;BME280;21656;46.054;13.614;2022-08-01T13:54:01;100297.63;;;33.21;28.86
35553;BME280;21656;46.054;13.614;2022-08-01T13:56:27;100285.94;;;33.29;28.57
35553;BME280;21656;46.054;13.614;2022-08-01T13:58:56;100289.28;;;33.41;28.72
35553;BME280;21656;46.054;13.614;2022-08-01T14:01:22;100282.84;;;33.15;28.67
35553;BME280;21656;46.054;13.614;2022-08-01T14:03:48;100287.63;;;33.40;29.02
35553;BME280;21656;46.054;13.614;2022-08-01T14:06:14;100281.69;;;33.01;29.13
35553;BME280;21656;46.054;13.614;2022-08-01T14:08:42;100296.13;;;32.72;29.89
35553;BME280;21656;46.054;13.614;2022-08-01T14:11:07;100274.06;;;32.66;30.00
35553;BME280;21656;46.054;13.614;2022-08-01T14:13:33;100278.84;;;32.86;29.71
35553;BME280;21656;46.054;13.614;2022-08-01T14:15:59;100270.00;;;33.04;30.92
35553;BME280;21656;46.054;13.614;2022-08-01T14:18:25;100280.91;;;33.21;30.36
35553;BME280;21656;46.054;13.614;2022-08-01T14:20:50;100270.88;;;33.40;29.79
35553;BME280;21656;46.054;13.614;2022-08-01T14:23:16;100268.63;;;33.27;28.97
35553;BME280;21656;46.054;13.614;2022-08-01T14:25:42;100273.38;;;33.32;29.82
35553;BME280;21656;46.054;13.614;2022-08-01T14:28:08;100263.06;;;33.53;30.00
35553;BME280;21656;46.054;13.614;2022-08-01T14:30:34;100273.38;;;33.67;29.62
35553;BME280;21656;46.054;13.614;2022-08-01T14:32:59;100273.38;;;33.52;29.33
35553;BME280;21656;46.054;13.614;2022-08-01T14:35:25;100278.13;;;33.26;29.78
35553;BME280;21656;46.054;13.614;2022-08-01T14:37:51;100279.22;;;33.10;30.33
35553;BME280;21656;46.054;13.614;2022-08-01T14:40:17;100271.56;;;32.64;30.86
35553;BME280;21656;46.054;13.614;2022-08-01T14:42:42;100275.75;;;32.62;30.93
35553;BME280;21656;46.054;13.614;2022-08-01T14:45:10;100283.19;;;32.51;30.84
35553;BME280;21656;46.054;13.614;2022-08-01T14:47:37;100277.66;;;32.56;30.64
35553;BME280;21656;46.054;13.614;2022-08-01T14:50:05;100273.44;;;32.48;30.10
35553;BME280;21656;46.054;13.614;2022-08-01T14:52:32;100283.69;;;32.43;29.97
35553;BME280;21656;46.054;13.614;2022-08-01T14:54:57;100286.56;;;32.53;29.38
35553;BME280;21656;46.054;13.614;2022-08-01T14:57:23;100283.16;;;32.46;29.98
35553;BME280;21656;46.054;13.614;2022-08-01T14:59:48;100280.16;;;32.52;30.08
35553;BME280;21656;46.054;13.614;2022-08-01T15:02:14;100287.16;;;32.60;30.59
35553;BME280;21656;46.054;13.614;2022-08-01T15:04:43;100286.34;;;32.70;29.56
35553;BME280;21656;46.054;13.614;2022-08-01T15:07:08;100286.31;;;32.54;29.68
35553;BME280;21656;46.054;13.614;2022-08-01T15:09:33;100277.31;;;32.47;29.92
35553;BME280;21656;46.054;13.614;2022-08-01T15:11:59;100291.03;;;32.49;30.42
35553;BME280;21656;46.054;13.614;2022-08-01T15:14:24;100279.06;;;32.58;31.18
35553;BME280;21656;46.054;13.614;2022-08-01T15:17:08;100273.19;;;32.55;31.64
35553;BME280;21656;46.054;13.614;2022-08-01T15:19:33;100279.03;;;32.53;30.36
35553;BME280;21656;46.054;13.614;2022-08-01T15:21:59;100276.16;;;32.38;30.61
35553;BME280;21656;46.054;13.614;2022-08-01T15:24:24;100278.09;;;32.32;31.21
35553;BME280;21656;46.054;13.614;2022-08-01T15:26:50;100281.66;;;32.23;30.97
35553;BME280;21656;46.054;13.614;2022-08-01T15:29:15;100284.44;;;32.23;30.78
35553;BME280;21656;46.054;13.614;2022-08-01T15:31:40;100282.69;;;32.06;30.89
35553;BME280;21656;46.054;13.614;2022-08-01T15:34:06;100279.56;;;31.98;30.82
35553;BME280;21656;46.054;13.614;2022-08-01T15:36:31;100283.72;;;31.95;31.14
35553;BME280;21656;46.054;13.614;2022-08-01T15:38:57;100291.25;;;31.94;31.83
35553;BME280;21656;46.054;13.614;2022-08-01T15:41:22;100284.75;;;31.84;31.16
35553;BME280;21656;46.054;13.614;2022-08-01T15:43:48;100288.94;;;31.86;31.10
35553;BME280;21656;46.054;13.614;2022-08-01T15:46:13;100283.34;;;31.81;30.83
35553;BME280;21656;46.054;13.614;2022-08-01T15:48:38;100283.88;;;31.78;31.03
35553;BME280;21656;46.054;13.614;2022-08-01T15:51:04;100284.72;;;31.79;31.32
35553;BME280;21656;46.054;13.614;2022-08-01T15:53:29;100281.97;;;31.84;31.11
35553;BME280;21656;46.054;13.614;2022-08-01T15:55:55;100285.03;;;31.87;30.29
35553;BME280;21656;46.054;13.614;2022-08-01T15:58:20;100290.28;;;31.79;30.53
35553;BME280;21656;46.054;13.614;2022-08-01T16:00:45;100285.50;;;31.74;30.27
35553;BME280;21656;46.054;13.614;2022-08-01T16:03:11;100286.28;;;31.64;30.35
35553;BME280;21656;46.054;13.614;2022-08-01T16:05:36;100285.47;;;31.69;30.85
35553;BME280;21656;46.054;13.614;2022-08-01T16:08:02;100285.69;;;31.62;30.57
35553;BME280;21656;46.054;13.614;2022-08-01T16:10:29;100285.97;;;31.61;30.28
35553;BME280;21656;46.054;13.614;2022-08-01T16:12:54;100275.34;;;31.52;30.49
35553;BME280;21656;46.054;13.614;2022-08-01T16:15:20;100275.34;;;31.52;30.66
35553;BME280;21656;46.054;13.614;2022-08-01T16:17:45;100275.84;;;31.49;30.95
35553;BME280;21656;46.054;13.614;2022-08-01T16:20:11;100282.50;;;31.43;31.45
35553;BME280;21656;46.054;13.614;2022-08-01T16:22:36;100286.00;;;31.34;30.82
35553;BME280;21656;46.054;13.614;2022-08-01T16:25:03;100289.03;;;31.32;31.31
35553;BME280;21656;46.054;13.614;2022-08-01T16:27:29;100291.22;;;31.25;31.71
35553;BME280;21656;46.054;13.614;2022-08-01T16:29:56;100284.78;;;31.24;31.18
35553;BME280;21656;46.054;13.614;2022-08-01T16:32:21;100284.56;;;31.31;31.17
35553;BME280;21656;46.054;13.614;2022-08-01T16:34:47;100290.34;;;31.24;31.18
35553;BME280;21656;46.054;13.614;2022-08-01T16:37:13;100285.59;;;31.20;31.59
35553;BME280;21656;46.054;13.614;2022-08-01T16:39:38;100290.28;;;31.19;31.38
35553;BME280;21656;46.054;13.614;2022-08-01T16:42:04;100281.97;;;31.19;31.86
35553;BME280;21656;46.054;13.614;2022-08-01T16:44:29;100273.56;;;31.14;31.59
35553;BME280;21656;46.054;13.614;2022-08-01T16:46:54;100274.38;;;31.09;31.18
35553;BME280;21656;46.054;13.614;2022-08-01T16:49:20;100265.13;;;31.04;31.18
35553;BME280;21656;46.054;13.614;2022-08-01T16:51:45;100270.13;;;31.02;31.72
35553;BME280;21656;46.054;13.614;2022-08-01T16:54:10;100262.84;;;30.96;31.91
35553;BME280;21656;46.054;13.614;2022-08-01T16:56:36;100268.34;;;30.91;31.03
35553;BME280;21656;46.054;13.614;2022-08-01T16:59:01;100276.38;;;30.87;31.41
35553;BME280;21656;46.054;13.614;2022-08-01T17:01:27;100278.03;;;30.88;31.28
35553;BME280;21656;46.054;13.614;2022-08-01T17:03:52;100282.75;;;30.87;31.51
35553;BME280;21656;46.054;13.614;2022-08-01T17:06:18;100289.09;;;30.83;31.47
35553;BME280;21656;46.054;13.614;2022-08-01T17:08:43;100281.88;;;30.82;31.71
35553;BME280;21656;46.054;13.614;2022-08-01T17:11:10;100279.31;;;30.80;31.98
35553;BME280;21656;46.054;13.614;2022-08-01T17:13:36;100278.69;;;30.73;32.43
35553;BME280;21656;46.054;13.614;2022-08-01T17:16:01;100288.91;;;30.67;33.80
35553;BME280;21656;46.054;13.614;2022-08-01T17:18:27;100288.00;;;30.62;35.27
35553;BME280;21656;46.054;13.614;2022-08-01T17:20:53;100288.19;;;30.55;36.07
35553;BME280;21656;46.054;13.614;2022-08-01T17:23:18;100284.69;;;30.43;36.99
35553;BME280;21656;46.054;13.614;2022-08-01T17:25:44;100282.91;;;30.32;37.68
35553;BME280;21656;46.054;13.614;2022-08-01T17:28:10;100286.97;;;30.24;37.99
35553;BME280;21656;46.054;13.614;2022-08-01T17:30:35;100285.44;;;30.16;37.83
35553;BME280;21656;46.054;13.614;2022-08-01T17:33:04;100286.72;;;30.09;38.23
35553;BME280;21656;46.054;13.614;2022-08-01T17:35:30;100283.59;;;30.05;38.56
35553;BME280;21656;46.054;13.614;2022-08-01T17:37:55;100287.16;;;30.00;38.78
35553;BME280;21656;46.054;13.614;2022-08-01T17:40:21;100287.88;;;29.91;39.00
35553;BME280;21656;46.054;13.614;2022-08-01T17:42:46;100290.66;;;29.74;38.59
35553;BME280;21656;46.054;13.614;2022-08-01T17:45:12;100295.53;;;29.67;39.40
35553;BME280;21656;46.054;13.614;2022-08-01T17:47:39;100290.38;;;29.58;40.00
35553;BME280;21656;46.054;13.614;2022-08-01T17:50:07;100287.44;;;29.48;40.03
35553;BME280;21656;46.054;13.614;2022-08-01T17:52:33;100293.31;;;29.52;39.39
35553;BME280;21656;46.054;13.614;2022-08-01T17:54:59;100280.88;;;29.37;39.69
35553;BME280;21656;46.054;13.614;2022-08-01T17:57:25;100295.00;;;29.36;39.91
35553;BME280;21656;46.054;13.614;2022-08-01T17:59:51;100294.91;;;29.31;40.23
35553;BME280;21656;46.054;13.614;2022-08-01T18:02:17;100289.25;;;29.26;40.95
35553;BME280;21656;46.054;13.614;2022-08-01T18:04:43;100291.63;;;29.17;40.88
35553;BME280;21656;46.054;13.614;2022-08-01T18:07:08;100295.13;;;29.12;41.09
35553;BME280;21656;46.054;13.614;2022-08-01T18:09:34;100302.03;;;29.10;41.48
35553;BME280;21656;46.054;13.614;2022-08-01T18:12:00;100303.22;;;29.02;41.46
35553;BME280;21656;46.054;13.614;2022-08-01T18:14:26;100307.63;;;28.86;41.84
35553;BME280;21656;46.054;13.614;2022-08-01T18:16:52;100307.88;;;28.85;41.98
35553;BME280;21656;46.054;13.614;2022-08-01T18:19:18;100321.22;;;28.59;42.29
35553;BME280;21656;46.054;13.614;2022-08-01T18:21:49;100319.78;;;28.57;42.42
35553;BME280;21656;46.054;13.614;2022-08-01T18:24:15;100321.34;;;28.52;43.04
35553;BME280;21656;46.054;13.614;2022-08-01T18:26:42;100327.16;;;28.16;43.71
35553;BME280;21656;46.054;13.614;2022-08-01T18:29:08;100333.53;;;28.04;44.22
35553;BME280;21656;46.054;13.614;2022-08-01T18:31:34;100334.25;;;28.00;43.41
35553;BME280;21656;46.054;13.614;2022-08-01T18:33:59;100332.69;;;28.04;43.35
35553;BME280;21656;46.054;13.614;2022-08-01T18:36:25;100331.88;;;28.03;43.02
35553;BME280;21656;46.054;13.614;2022-08-01T18:38:53;100331.38;;;27.95;43.08
35553;BME280;21656;46.054;13.614;2022-08-01T18:41:18;100334.38;;;27.81;44.08
35553;BME280;21656;46.054;13.614;2022-08-01T18:43:43;100336.16;;;27.76;44.56
35553;BME280;21656;46.054;13.614;2022-08-01T18:46:09;100339.13;;;27.62;44.64
35553;BME280;21656;46.054;13.614;2022-08-01T18:48:34;100342.31;;;27.36;45.44
35553;BME280;21656;46.054;13.614;2022-08-01T18:51:00;100333.84;;;27.19;45.81
35553;BME280;21656;46.054;13.614;2022-08-01T18:53:26;100334.28;;;27.16;45.97
35553;BME280;21656;46.054;13.614;2022-08-01T18:55:51;100331.09;;;27.19;46.06
35553;BME280;21656;46.054;13.614;2022-08-01T18:58:17;100334.47;;;27.21;45.89
35553;BME280;21656;46.054;13.614;2022-08-01T19:00:43;100340.81;;;27.21;45.58
35553;BME280;21656;46.054;13.614;2022-08-01T19:03:08;100348.81;;;27.11;45.85
35553;BME280;21656;46.054;13.614;2022-08-01T19:05:34;100349.19;;;27.15;46.33
35553;BME280;21656;46.054;13.614;2022-08-01T19:07:59;100362.63;;;27.11;46.48
35553;BME280;21656;46.054;13.614;2022-08-01T19:10:25;100366.97;;;26.89;46.34
35553;BME280;21656;46.054;13.614;2022-08-01T19:12:50;100362.44;;;26.94;46.98
35553;BME280;21656;46.054;13.614;2022-08-01T19:15:16;100365.09;;;27.01;46.50
35553;BME280;21656;46.054;13.614;2022-08-01T19:17:41;100373.88;;;26.98;46.87
35553;BME280;21656;46.054;13.614;2022-08-01T19:20:09;100382.31;;;27.03;46.48
35553;BME280;21656;46.054;13.614;2022-08-01T19:22:34;100394.75;;;26.75;47.10
35553;BME280;21656;46.054;13.614;2022-08-01T19:25:00;100393.69;;;26.33;48.03